Time;durP1;ratioP1;P1;durP2;ratioP2;P2;SDS_P1;SDS_P2;PMS_P1;PMS_P2;Temp;Humidity;BMP_temperature;BMP_pressure;BME280_temperature;BME280_humidity;BME280_pressure;Samples;Min_cycle;Max_cycle;Signal;HPM_P1;HPM_P2
2024/03/13 00:01:06;;;;;;;16.60;10.80;;;8.20;99.90;;;;;;4985409;28;20452;-75
2024/03/13 00:03:33;;;;;;;19.47;10.73;;;8.20;99.90;;;;;;4987652;28;20424;-74
2024/03/13 00:05:59;;;;;;;17.20;10.50;;;8.20;99.90;;;;;;4985072;28;20478;-73
2024/03/13 00:08:26;;;;;;;16.07;10.50;;;8.20;99.90;;;;;;4986466;28;20408;-73
2024/03/13 00:10:53;;;;;;;13.90;9.63;;;8.20;99.90;;;;;;4985083;28;20428;-76
2024/03/13 00:13:20;;;;;;;14.40;9.37;;;8.20;99.90;;;;;;4986564;28;20523;-74
2024/03/13 00:15:46;;;;;;;15.53;9.63;;;8.20;99.90;;;;;;4981289;28;20490;-77
2024/03/13 00:18:11;;;;;;;12.90;9.23;;;8.20;99.90;;;;;;4987829;28;20416;-73
2024/03/13 00:20:38;;;;;;;13.77;9.87;;;8.30;99.90;;;;;;4985679;28;20459;-74
2024/03/13 00:23:05;;;;;;;17.60;10.87;;;8.30;99.90;;;;;;4984614;28;20355;-73
2024/03/13 00:25:33;;;;;;;11.33;8.33;;;8.30;99.90;;;;;;4984459;28;20471;-74
2024/03/13 00:28:00;;;;;;;12.50;9.30;;;8.30;99.90;;;;;;4985989;28;20411;-76
2024/03/13 00:30:26;;;;;;;15.03;9.67;;;8.30;99.90;;;;;;4987085;28;20408;-73
2024/03/13 00:32:54;;;;;;;14.50;9.37;;;8.30;99.90;;;;;;4986572;28;20415;-75
2024/03/13 00:35:23;;;;;;;15.27;9.90;;;8.30;99.90;;;;;;4987987;28;20260;-73
2024/03/13 00:37:52;;;;;;;13.03;9.30;;;8.20;99.90;;;;;;4987414;28;20701;-77
2024/03/13 00:40:18;;;;;;;13.33;8.50;;;8.20;99.90;;;;;;4985620;28;20424;-74
2024/03/13 00:42:44;;;;;;;17.40;9.63;;;8.20;99.90;;;;;;4984828;28;20716;-73
2024/03/13 00:45:13;;;;;;;15.83;9.20;;;8.20;99.90;;;;;;4982575;28;20486;-73
2024/03/13 00:47:39;;;;;;;13.27;9.43;;;8.10;99.90;;;;;;4986624;28;20212;-74
2024/03/13 00:50:07;;;;;;;15.37;9.80;;;8.10;99.90;;;;;;4985274;28;20507;-75
2024/03/13 00:52:35;;;;;;;13.83;9.63;;;8.10;99.90;;;;;;4976086;28;20435;-71
2024/03/13 00:55:02;;;;;;;16.50;10.23;;;8.10;99.90;;;;;;4976376;28;20519;-74
2024/03/13 00:57:27;;;;;;;18.73;10.40;;;8.10;99.90;;;;;;4976833;28;20447;-73
2024/03/13 00:59:53;;;;;;;14.40;9.40;;;8.10;99.90;;;;;;4971655;28;20707;-72
2024/03/13 01:02:20;;;;;;;16.73;10.17;;;8.10;99.90;;;;;;4977236;28;20251;-72
2024/03/13 01:04:48;;;;;;;13.77;10.00;;;8.10;99.90;;;;;;4976586;28;20650;-73
2024/03/13 01:07:14;;;;;;;14.83;9.80;;;8.00;99.90;;;;;;4977420;28;20524;-74
2024/03/13 01:09:40;;;;;;;15.73;9.93;;;8.00;99.90;;;;;;4980342;28;20447;-73
2024/03/13 01:12:06;;;;;;;14.63;10.07;;;8.00;99.90;;;;;;4980116;28;20464;-73
2024/03/13 01:14:32;;;;;;;15.00;10.50;;;8.00;99.90;;;;;;4976685;28;20439;-73
2024/03/13 01:17:00;;;;;;;13.47;9.83;;;7.90;99.90;;;;;;4976455;28;20448;-73
2024/03/13 01:19:30;;;;;;;12.77;9.60;;;7.90;99.90;;;;;;4976202;28;20207;-74
2024/03/13 01:22:03;;;;;;;12.43;9.30;;;7.90;99.90;;;;;;4976195;28;20408;-72
2024/03/13 01:24:29;;;;;;;16.70;10.53;;;7.90;99.90;;;;;;4976213;28;20515;-72
2024/03/13 01:26:54;;;;;;;16.03;10.27;;;7.90;99.90;;;;;;4976132;28;20459;-72
2024/03/13 01:29:21;;;;;;;14.83;10.13;;;7.80;99.90;;;;;;4975704;28;20192;-72
2024/03/13 01:31:47;;;;;;;16.10;11.17;;;7.80;99.90;;;;;;4976035;28;21085;-73
2024/03/13 01:34:12;;;;;;;17.30;10.10;;;7.80;99.90;;;;;;4976301;28;20828;-73
2024/03/13 01:39:24;;;;;;;13.30;8.77;;;7.80;99.90;;;;;;4976769;28;20184;-74
2024/03/13 01:55:44;;;;;;;15.87;9.43;;;7.80;99.90;;;;;;4975789;28;20420;-74
2024/03/13 01:58:12;;;;;;;11.90;8.17;;;7.80;99.90;;;;;;4975656;28;20824;-73
2024/03/13 02:03:24;;;;;;;12.63;8.60;;;7.70;99.90;;;;;;4973674;28;20499;-72
2024/03/13 02:05:51;;;;;;;15.80;9.37;;;7.80;99.90;;;;;;4976045;28;20475;-74
2024/03/13 02:08:18;;;;;;;13.50;8.80;;;7.80;99.90;;;;;;4975537;28;20700;-72
2024/03/13 02:10:44;;;;;;;11.43;8.10;;;7.80;99.90;;;;;;4975107;28;20707;-74
2024/03/13 02:13:11;;;;;;;10.07;7.17;;;7.80;99.90;;;;;;4975519;28;20423;-72
2024/03/13 02:15:42;;;;;;;9.77;7.90;;;7.80;99.90;;;;;;4974954;28;20432;-74
2024/03/13 02:18:23;;;;;;;12.93;8.90;;;7.80;99.90;;;;;;4975576;28;20863;-73
2024/03/13 02:20:52;;;;;;;12.40;7.80;;;7.80;99.90;;;;;;4974323;28;20423;-73
2024/03/13 02:23:27;;;;;;;10.73;7.33;;;7.80;99.90;;;;;;4974613;28;20510;-73
2024/03/13 02:25:53;;;;;;;11.27;8.23;;;7.80;99.90;;;;;;4975733;28;20502;-74
2024/03/13 02:28:31;;;;;;;12.37;8.43;;;7.80;99.90;;;;;;4975457;28;20424;-73
2024/03/13 02:30:57;;;;;;;12.93;7.77;;;7.80;99.90;;;;;;4971257;28;20497;-73
2024/03/13 02:33:22;;;;;;;9.80;7.43;;;7.80;99.90;;;;;;4974885;28;20496;-73
2024/03/13 02:35:48;;;;;;;10.03;7.40;;;7.70;99.90;;;;;;4975751;28;20207;-75
2024/03/13 02:38:13;;;;;;;12.00;8.03;;;7.70;99.90;;;;;;4978167;28;20303;-73
2024/03/13 02:40:39;;;;;;;12.27;7.70;;;7.70;99.90;;;;;;4974472;28;20193;-74
2024/03/13 02:43:05;;;;;;;12.90;8.30;;;7.70;99.90;;;;;;4974250;28;20577;-73
2024/03/13 02:45:32;;;;;;;12.13;8.13;;;7.70;99.90;;;;;;4975771;28;20354;-72
2024/03/13 02:47:58;;;;;;;13.67;8.30;;;7.80;99.90;;;;;;4975948;28;20527;-74
2024/03/13 02:50:23;;;;;;;10.20;7.13;;;7.70;99.90;;;;;;4974588;28;20498;-73
2024/03/13 02:52:49;;;;;;;12.33;6.87;;;7.70;99.90;;;;;;4976591;28;20431;-72
2024/03/13 02:55:14;;;;;;;15.33;7.40;;;7.70;99.90;;;;;;4979587;28;20192;-73
2024/03/13 02:57:40;;;;;;;12.80;7.43;;;7.70;99.90;;;;;;4979772;28;20211;-74
2024/03/13 03:00:06;;;;;;;13.13;7.70;;;7.70;99.90;;;;;;4979000;28;20196;-74
2024/03/13 03:02:33;;;;;;;12.40;7.93;;;7.70;99.90;;;;;;4979870;28;20274;-75
2024/03/13 03:04:59;;;;;;;19.10;8.40;;;7.70;99.90;;;;;;4978871;28;20485;-73
2024/03/13 03:07:25;;;;;;;9.53;7.20;;;7.70;99.90;;;;;;4979287;28;20732;-74
2024/03/13 03:09:51;;;;;;;13.90;8.60;;;7.70;99.90;;;;;;4979649;28;20271;-75
2024/03/13 03:12:17;;;;;;;11.03;7.60;;;7.70;99.90;;;;;;4979078;28;20192;-75
2024/03/13 03:14:42;;;;;;;9.70;7.50;;;7.80;99.90;;;;;;4984295;28;20207;-76
2024/03/13 03:17:08;;;;;;;8.50;5.93;;;7.70;99.90;;;;;;4982033;28;20479;-73
2024/03/13 03:19:35;;;;;;;10.33;6.50;;;7.70;99.90;;;;;;4977644;28;20196;-74
2024/03/13 03:22:03;;;;;;;10.73;6.60;;;7.70;99.90;;;;;;4985670;28;20264;-73
2024/03/13 03:24:32;;;;;;;11.13;7.50;;;7.70;99.90;;;;;;4993549;28;20490;-73
2024/03/13 03:26:58;;;;;;;9.53;6.77;;;7.80;99.90;;;;;;4989375;28;20446;-73
2024/03/13 03:29:24;;;;;;;9.93;6.70;;;7.80;99.90;;;;;;4983173;28;21002;-73
2024/03/13 03:31:49;;;;;;;11.33;6.80;;;7.80;99.90;;;;;;4979159;28;20499;-74
2024/03/13 03:34:15;;;;;;;11.07;6.60;;;7.80;99.90;;;;;;4983604;28;20223;-72
2024/03/13 03:36:42;;;;;;;10.70;7.37;;;7.80;99.90;;;;;;4974207;28;20204;-74
2024/03/13 03:39:10;;;;;;;12.03;6.80;;;7.80;99.90;;;;;;4979523;28;20414;-74
2024/03/13 03:41:39;;;;;;;12.60;7.80;;;7.80;99.90;;;;;;4978508;28;20276;-74
2024/03/13 03:44:05;;;;;;;9.70;6.57;;;7.80;99.90;;;;;;4979464;28;20420;-74
2024/03/13 03:46:31;;;;;;;12.57;7.80;;;7.80;99.90;;;;;;4977774;28;20446;-74
2024/03/13 03:48:58;;;;;;;11.87;6.53;;;7.80;99.90;;;;;;4977846;28;20431;-73
2024/03/13 03:51:26;;;;;;;11.57;7.20;;;7.80;99.90;;;;;;4977879;28;20443;-74
2024/03/13 03:53:51;;;;;;;13.80;7.73;;;7.80;99.90;;;;;;4978030;28;20435;-74
2024/03/13 03:56:17;;;;;;;13.03;7.37;;;7.80;99.90;;;;;;4978196;28;20447;-73
2024/03/13 03:58:42;;;;;;;12.73;7.50;;;7.80;99.90;;;;;;4974624;28;20267;-74
2024/03/13 04:01:08;;;;;;;13.50;6.80;;;7.80;99.90;;;;;;4978057;28;20223;-73
2024/03/13 04:03:37;;;;;;;13.17;7.30;;;7.80;99.90;;;;;;4977012;28;20196;-74
2024/03/13 04:06:04;;;;;;;11.00;7.03;;;7.80;99.90;;;;;;4977597;28;20459;-74
2024/03/13 04:08:29;;;;;;;9.20;6.87;;;7.90;99.90;;;;;;4976659;28;20432;-74
2024/03/13 04:10:55;;;;;;;12.23;7.23;;;7.80;99.90;;;;;;4978036;28;20420;-74
2024/03/13 04:13:22;;;;;;;11.17;8.03;;;7.90;99.90;;;;;;4977313;28;20313;-74
2024/03/13 04:15:50;;;;;;;15.10;7.83;;;7.80;99.90;;;;;;4978706;28;20865;-74
2024/03/13 04:18:17;;;;;;;9.57;7.47;;;7.90;99.90;;;;;;4943886;28;20451;-74
2024/03/13 04:20:45;;;;;;;11.63;8.30;;;7.90;99.90;;;;;;4955250;28;20709;-73
2024/03/13 04:23:13;;;;;;;15.07;7.60;;;7.80;99.90;;;;;;4954962;28;20483;-75
2024/03/13 04:25:40;;;;;;;10.63;7.43;;;7.90;99.90;;;;;;4955196;28;20902;-74
2024/03/13 04:28:08;;;;;;;10.73;7.10;;;7.80;99.90;;;;;;4955187;28;20424;-74
2024/03/13 04:30:34;;;;;;;15.80;8.13;;;7.80;99.90;;;;;;4953883;29;20408;-74
2024/03/13 04:32:59;;;;;;;18.37;9.00;;;7.90;99.90;;;;;;4956174;29;20712;-74
2024/03/13 04:35:25;;;;;;;15.20;8.37;;;7.90;99.90;;;;;;4954972;28;20629;-74
2024/03/13 04:37:51;;;;;;;12.30;7.40;;;7.90;99.90;;;;;;4939481;29;20304;-73
2024/03/13 04:40:19;;;;;;;9.57;6.60;;;7.90;99.90;;;;;;4955501;29;20856;-73
2024/03/13 04:42:45;;;;;;;10.50;6.33;;;7.90;99.90;;;;;;4955313;29;20287;-74
2024/03/13 04:45:11;;;;;;;9.97;6.37;;;7.90;99.90;;;;;;4954649;28;20595;-74
2024/03/13 04:47:36;;;;;;;10.80;6.97;;;7.90;99.90;;;;;;4951578;29;20444;-75
2024/03/13 04:50:03;;;;;;;13.03;7.53;;;7.90;99.90;;;;;;4972797;28;20243;-74
2024/03/13 04:52:29;;;;;;;12.77;7.43;;;7.90;99.90;;;;;;4975439;28;20277;-74
2024/03/13 04:54:55;;;;;;;15.47;8.20;;;7.90;99.90;;;;;;4978757;28;20420;-75
2024/03/13 04:57:21;;;;;;;13.90;7.57;;;7.90;99.90;;;;;;4978951;28;20458;-74
2024/03/13 04:59:48;;;;;;;12.63;7.13;;;7.90;99.90;;;;;;4973186;28;20416;-74
2024/03/13 05:02:14;;;;;;;14.93;7.77;;;7.90;99.90;;;;;;4982733;28;20184;-75
2024/03/13 05:04:42;;;;;;;14.17;7.93;;;7.90;99.90;;;;;;4976472;28;20499;-74
2024/03/13 05:07:10;;;;;;;17.27;7.90;;;7.90;99.90;;;;;;4976857;28;20259;-74
2024/03/13 05:09:37;;;;;;;10.87;7.10;;;8.00;99.90;;;;;;4976256;28;20724;-74
2024/03/13 05:12:06;;;;;;;10.80;6.13;;;8.00;99.90;;;;;;4977413;28;20408;-76
2024/03/13 05:14:31;;;;;;;10.73;6.00;;;8.00;99.90;;;;;;4976433;28;20487;-74
2024/03/13 05:16:57;;;;;;;14.83;6.93;;;8.00;99.90;;;;;;4975345;28;20479;-75
2024/03/13 05:19:22;;;;;;;15.27;7.80;;;8.00;99.90;;;;;;4977139;28;20620;-74
2024/03/13 05:21:48;;;;;;;18.57;8.53;;;8.00;99.90;;;;;;4976290;28;20192;-74
2024/03/13 05:24:14;;;;;;;11.20;6.40;;;8.00;99.90;;;;;;4977497;28;20216;-75
2024/03/13 05:26:41;;;;;;;11.10;7.03;;;8.10;99.90;;;;;;4977230;28;20216;-74
2024/03/13 05:29:08;;;;;;;10.80;6.03;;;8.10;99.90;;;;;;4977054;28;20503;-74
2024/03/13 05:31:34;;;;;;;11.47;6.47;;;8.10;99.90;;;;;;4976908;28;20438;-74
2024/03/13 05:34:00;;;;;;;12.13;6.30;;;8.10;99.90;;;;;;4976410;28;20420;-75
2024/03/13 05:36:26;;;;;;;11.50;6.10;;;8.10;99.90;;;;;;4977473;28;20216;-74
2024/03/13 05:38:53;;;;;;;11.70;7.20;;;8.10;99.90;;;;;;4978340;28;20439;-75
2024/03/13 05:41:22;;;;;;;15.10;6.50;;;8.10;99.90;;;;;;4978047;28;20203;-74
2024/03/13 05:43:48;;;;;;;12.13;6.40;;;8.10;99.90;;;;;;4978349;28;20541;-74
2024/03/13 05:46:14;;;;;;;10.77;6.60;;;8.10;99.90;;;;;;4977807;28;20742;-76
2024/03/13 05:48:39;;;;;;;12.50;6.60;;;8.10;99.90;;;;;;4977520;28;20426;-75
2024/03/13 05:51:06;;;;;;;14.23;7.00;;;8.10;99.90;;;;;;4978128;28;20189;-73
2024/03/13 05:53:32;;;;;;;16.27;8.53;;;8.20;99.90;;;;;;4978489;28;20187;-73
2024/03/13 05:56:00;;;;;;;15.27;7.53;;;8.20;99.90;;;;;;4977403;28;21605;-74
2024/03/13 05:58:25;;;;;;;13.90;6.90;;;8.20;99.90;;;;;;4977012;28;20423;-76
2024/03/13 06:00:52;;;;;;;11.90;7.93;;;8.20;99.90;;;;;;4978973;28;20700;-77
2024/03/13 06:03:18;;;;;;;17.60;8.27;;;8.20;99.90;;;;;;4984725;28;20184;-75
2024/03/13 06:05:45;;;;;;;14.10;7.60;;;8.20;99.90;;;;;;4984537;28;20563;-77
2024/03/13 06:08:12;;;;;;;13.20;7.27;;;8.20;99.90;;;;;;4982660;28;20438;-73
2024/03/13 06:10:38;;;;;;;14.20;7.03;;;8.30;99.90;;;;;;4983719;28;20416;-75
2024/03/13 06:13:04;;;;;;;19.33;10.40;;;8.30;99.90;;;;;;4983228;28;20474;-78
2024/03/13 06:15:29;;;;;;;20.63;9.63;;;8.30;99.90;;;;;;4983397;28;20459;-78
2024/03/13 06:17:56;;;;;;;21.87;11.03;;;8.30;99.90;;;;;;4983862;28;20187;-76
2024/03/13 06:20:21;;;;;;;17.83;8.17;;;8.40;99.90;;;;;;4983788;28;20220;-74
2024/03/13 06:22:47;;;;;;;14.80;8.43;;;8.40;99.90;;;;;;4986004;28;20432;-79
2024/03/13 06:25:14;;;;;;;14.10;8.00;;;8.40;99.90;;;;;;4983638;28;20228;-75
2024/03/13 06:27:40;;;;;;;16.93;9.93;;;8.40;99.90;;;;;;4983862;28;20716;-76
2024/03/13 06:30:08;;;;;;;18.07;10.77;;;8.40;99.90;;;;;;4985142;28;20412;-79
2024/03/13 06:32:35;;;;;;;23.10;11.80;;;8.50;99.90;;;;;;4986231;28;20437;-76
2024/03/13 06:35:04;;;;;;;21.47;9.50;;;8.50;99.90;;;;;;4986585;28;20494;-77
2024/03/13 06:37:33;;;;;;;17.67;9.27;;;8.50;99.90;;;;;;4971068;28;20451;-77
2024/03/13 06:39:59;;;;;;;16.33;9.37;;;8.50;99.90;;;;;;4987747;28;20445;-77
2024/03/13 06:42:25;;;;;;;17.07;8.67;;;8.60;99.90;;;;;;4974409;28;20423;-77
2024/03/13 06:44:51;;;;;;;13.17;8.60;;;8.60;99.90;;;;;;4988014;28;20494;-76
2024/03/13 06:47:17;;;;;;;15.37;9.97;;;8.60;99.90;;;;;;4987468;28;20871;-79
2024/03/13 06:49:46;;;;;;;17.87;10.50;;;8.70;99.90;;;;;;4985659;28;20428;-77
2024/03/13 06:52:15;;;;;;;21.60;10.60;;;8.70;99.90;;;;;;4984656;28;20450;-76
2024/03/13 06:54:41;;;;;;;18.07;9.10;;;8.70;99.90;;;;;;4987539;28;20428;-77
2024/03/13 06:57:09;;;;;;;20.97;9.90;;;8.70;99.90;;;;;;4985839;28;20531;-77
2024/03/13 06:59:36;;;;;;;21.33;10.03;;;8.80;99.90;;;;;;4968547;28;20419;-76
2024/03/13 07:02:02;;;;;;;15.13;8.23;;;8.80;99.90;;;;;;4985990;28;20439;-75
2024/03/13 07:04:29;;;;;;;17.23;8.87;;;8.90;99.90;;;;;;4967624;28;20468;-77
2024/03/13 07:07:00;;;;;;;19.07;9.90;;;8.90;99.90;;;;;;4987891;28;20586;-79
2024/03/13 07:09:27;;;;;;;19.00;8.90;;;9.00;99.90;;;;;;4987530;28;20435;-78
2024/03/13 07:11:53;;;;;;;17.13;7.70;;;9.10;99.90;;;;;;4970373;28;20415;-77
2024/03/13 07:14:19;;;;;;;14.90;8.23;;;9.10;99.90;;;;;;4970109;28;20423;-78
2024/03/13 07:16:45;;;;;;;13.77;8.13;;;9.10;99.90;;;;;;4967285;28;20490;-76
2024/03/13 07:19:11;;;;;;;13.97;6.93;;;9.10;99.90;;;;;;4985305;28;20223;-76
2024/03/13 07:21:38;;;;;;;10.10;7.13;;;9.20;99.90;;;;;;4985886;28;20420;-79
2024/03/13 07:24:04;;;;;;;17.03;8.87;;;9.20;99.90;;;;;;4981868;28;20807;-78
2024/03/13 07:26:31;;;;;;;12.33;7.63;;;9.30;99.90;;;;;;4985217;28;20463;-78
2024/03/13 07:28:57;;;;;;;16.50;8.60;;;9.40;99.90;;;;;;4969295;28;20184;-77
2024/03/13 07:31:23;;;;;;;16.93;9.20;;;9.50;99.90;;;;;;4967810;28;20878;-79
2024/03/13 07:33:50;;;;;;;13.90;7.80;;;9.50;99.90;;;;;;4968279;28;20465;-79
2024/03/13 07:36:16;;;;;;;12.97;7.43;;;9.60;99.90;;;;;;4985432;28;20228;-78
2024/03/13 07:38:42;;;;;;;13.23;7.67;;;9.70;99.90;;;;;;4987578;28;20515;-77
2024/03/13 07:41:14;;;;;;;12.13;6.37;;;9.90;99.90;;;;;;4974505;28;20419;-79
2024/03/13 07:43:40;;;;;;;17.57;8.40;;;9.90;99.90;;;;;;4989269;28;20427;-76
2024/03/13 07:46:06;;;;;;;15.07;7.80;;;10.00;99.90;;;;;;4989078;28;20503;-77
2024/03/13 07:48:31;;;;;;;20.10;10.30;;;10.10;99.90;;;;;;4986882;28;20200;-76
2024/03/13 07:50:57;;;;;;;18.60;9.20;;;10.20;99.90;;;;;;4971774;28;20630;-75
2024/03/13 07:53:22;;;;;;;29.70;10.80;;;10.30;99.90;;;;;;4973681;28;20188;-78
2024/03/13 07:55:49;;;;;;;17.27;8.17;;;10.30;99.90;;;;;;4987211;28;20212;-77
2024/03/13 07:58:15;;;;;;;29.70;9.77;;;10.40;99.90;;;;;;4971717;28;20279;-76
2024/03/13 08:00:41;;;;;;;17.40;6.97;;;10.40;99.90;;;;;;4989771;28;20419;-77
2024/03/13 08:03:10;;;;;;;16.47;7.10;;;10.40;99.90;;;;;;4971281;28;20197;-77
2024/03/13 08:05:35;;;;;;;9.30;5.10;;;10.40;99.90;;;;;;4971040;28;20257;-75
2024/03/13 08:08:01;;;;;;;18.83;6.50;;;10.50;99.90;;;;;;4986776;28;20476;-79
2024/03/13 08:10:28;;;;;;;8.87;5.13;;;10.50;99.90;;;;;;4984224;28;20181;-77
2024/03/13 08:12:54;;;;;;;12.30;5.33;;;10.50;99.90;;;;;;4986914;28;20206;-77
2024/03/13 08:15:20;;;;;;;11.87;5.07;;;10.40;99.90;;;;;;4969020;28;20456;-76
2024/03/13 08:17:46;;;;;;;14.83;5.57;;;10.40;99.90;;;;;;4985645;28;20457;-75
2024/03/13 08:20:15;;;;;;;23.40;7.50;;;10.50;99.90;;;;;;4986328;28;20198;-76
2024/03/13 08:22:44;;;;;;;22.07;7.27;;;10.40;99.90;;;;;;4986386;28;20205;-77
2024/03/13 08:25:16;;;;;;;16.47;7.80;;;10.40;99.90;;;;;;4970675;28;20471;-76
2024/03/13 08:27:42;;;;;;;31.70;8.77;;;10.40;99.90;;;;;;4986104;28;20451;-77
2024/03/13 08:30:09;;;;;;;21.50;8.63;;;10.40;99.90;;;;;;4994129;28;20402;-76
2024/03/13 08:32:35;;;;;;;15.20;6.00;;;10.40;99.90;;;;;;4995340;28;20414;-78
2024/03/13 08:35:03;;;;;;;16.13;7.27;;;10.40;99.90;;;;;;4988420;28;20454;-76
2024/03/13 08:37:31;;;;;;;19.43;9.40;;;10.40;99.90;;;;;;4991044;28;20271;-79
2024/03/13 08:40:00;;;;;;;26.47;9.90;;;10.40;99.90;;;;;;4946227;28;20435;-78
2024/03/13 08:42:27;;;;;;;34.43;10.60;;;10.40;99.90;;;;;;4993370;28;20495;-78
2024/03/13 08:44:53;;;;;;;22.27;7.70;;;10.40;99.90;;;;;;4994480;28;20469;-76
2024/03/13 08:47:20;;;;;;;21.30;7.90;;;10.40;99.90;;;;;;4991661;28;20452;-78
2024/03/13 08:49:46;;;;;;;26.40;9.87;;;10.40;99.90;;;;;;4991687;28;20421;-78
2024/03/13 08:52:12;;;;;;;22.20;8.10;;;10.40;99.90;;;;;;4991607;28;20429;-77
2024/03/13 08:54:41;;;;;;;12.27;7.70;;;10.40;99.90;;;;;;4986104;28;20428;-75
2024/03/13 08:57:08;;;;;;;21.47;9.17;;;10.40;99.90;;;;;;4969108;28;20352;-80
2024/03/13 08:59:36;;;;;;;24.73;9.50;;;10.40;99.90;;;;;;4968939;29;20707;-76
2024/03/13 09:02:07;;;;;;;21.00;7.73;;;10.40;99.90;;;;;;4951047;29;20444;-75
2024/03/13 09:04:34;;;;;;;23.02;9.48;;;10.40;99.90;;;;;;4951623;29;20447;-77
2024/03/13 09:07:02;;;;;;;23.87;8.70;;;10.40;99.90;;;;;;4953209;29;20520;-79
2024/03/13 09:09:29;;;;;;;14.27;6.23;;;10.50;99.90;;;;;;4949284;29;20464;-76
2024/03/13 09:11:55;;;;;;;25.83;9.33;;;10.50;99.90;;;;;;4949599;29;20417;-77
2024/03/13 09:14:23;;;;;;;37.20;13.10;;;10.60;99.90;;;;;;4968250;29;20421;-77
2024/03/13 09:16:50;;;;;;;39.23;11.17;;;10.60;99.90;;;;;;4934038;29;20441;-76
2024/03/13 09:19:17;;;;;;;18.13;7.97;;;10.70;99.90;;;;;;4966222;29;20459;-77
2024/03/13 09:21:46;;;;;;;21.53;8.33;;;10.80;99.90;;;;;;4943137;29;20444;-77
2024/03/13 09:24:12;;;;;;;27.83;8.87;;;11.00;99.90;;;;;;4951205;29;20454;-79
2024/03/13 09:26:38;;;;;;;26.13;8.67;;;11.00;99.90;;;;;;4963024;29;20449;-78
2024/03/13 09:29:04;;;;;;;27.20;8.00;;;11.10;99.90;;;;;;4950435;29;20196;-76
2024/03/13 09:31:30;;;;;;;18.47;7.80;;;11.10;99.90;;;;;;4952907;29;20430;-76
2024/03/13 09:33:56;;;;;;;14.70;7.03;;;11.10;99.90;;;;;;4970838;28;20927;-79
2024/03/13 09:36:23;;;;;;;11.63;5.63;;;11.20;99.90;;;;;;4970405;28;20458;-75
2024/03/13 09:38:48;;;;;;;10.87;5.27;;;11.20;99.90;;;;;;4987381;28;20172;-75
2024/03/13 09:41:14;;;;;;;11.73;6.17;;;11.20;99.90;;;;;;4950809;28;20458;-75
2024/03/13 09:43:42;;;;;;;17.73;7.60;;;11.20;99.90;;;;;;4985755;28;20280;-78
2024/03/13 09:46:09;;;;;;;22.53;7.30;;;11.30;99.90;;;;;;4971198;28;20219;-77
2024/03/13 09:48:39;;;;;;;10.93;5.87;;;11.40;99.90;;;;;;4987010;28;20483;-76
2024/03/13 09:51:06;;;;;;;18.53;5.70;;;11.50;99.90;;;;;;4986779;28;20450;-77
2024/03/13 09:53:33;;;;;;;12.83;5.27;;;11.40;99.90;;;;;;4987389;28;20441;-77
2024/03/13 09:55:59;;;;;;;13.60;4.50;;;11.40;99.90;;;;;;4984945;28;20451;-76
2024/03/13 09:58:25;;;;;;;11.40;5.23;;;11.40;99.90;;;;;;4988142;28;20881;-78
2024/03/13 10:00:53;;;;;;;10.13;5.10;;;11.50;99.90;;;;;;4986108;28;20414;-76
2024/03/13 10:03:27;;;;;;;15.13;4.73;;;11.60;99.90;;;;;;4988500;28;20415;-80
2024/03/13 10:06:00;;;;;;;12.30;5.03;;;11.50;99.90;;;;;;4988870;28;20471;-77
2024/03/13 10:08:27;;;;;;;7.07;5.30;;;11.60;99.90;;;;;;4986615;28;20477;-77
2024/03/13 10:10:55;;;;;;;8.83;5.23;;;11.70;99.90;;;;;;4986344;28;20439;-78
2024/03/13 10:13:21;;;;;;;5.60;4.67;;;12.00;99.90;;;;;;4988861;28;20480;-79
2024/03/13 10:15:48;;;;;;;5.60;3.63;;;12.20;99.90;;;;;;4972662;28;20427;-78
2024/03/13 10:18:18;;;;;;;4.60;2.93;;;12.10;99.90;;;;;;4989067;28;20404;-77
2024/03/13 10:21:01;;;;;;;5.77;2.63;;;12.10;99.90;;;;;;4986912;28;20463;-77
2024/03/13 10:23:29;;;;;;;4.23;3.00;;;12.10;99.90;;;;;;4989024;28;20531;-79
2024/03/13 10:25:59;;;;;;;8.17;2.93;;;12.30;99.90;;;;;;4987728;28;20471;-78
2024/03/13 10:28:26;;;;;;;4.00;2.73;;;12.40;99.90;;;;;;4987390;28;20424;-78
2024/03/13 10:30:53;;;;;;;4.20;2.87;;;12.40;99.90;;;;;;4972689;28;20819;-79
2024/03/13 10:33:19;;;;;;;3.50;2.67;;;12.50;99.90;;;;;;4959651;28;20420;-77
2024/03/13 10:35:46;;;;;;;3.33;2.83;;;12.50;99.90;;;;;;4991466;28;20478;-80
2024/03/13 10:38:14;;;;;;;4.77;3.10;;;12.70;99.90;;;;;;4975560;28;20458;-78
2024/03/13 10:40:42;;;;;;;3.75;2.20;;;12.90;99.90;;;;;;4973148;29;20443;-77
2024/03/13 10:43:09;;;;;;;9.10;2.60;;;12.90;99.90;;;;;;4988537;28;20170;-78
2024/03/13 10:45:36;;;;;;;2.13;1.83;;;13.10;99.90;;;;;;4989765;28;20442;-78
2024/03/13 10:48:06;;;;;;;2.60;2.10;;;13.10;99.90;;;;;;4987034;28;20239;-80
2024/03/13 10:50:32;;;;;;;3.77;2.00;;;13.30;99.90;;;;;;4988292;28;20412;-81
2024/03/13 10:52:57;;;;;;;3.63;2.03;;;13.60;99.90;;;;;;4992820;28;20439;-78
2024/03/13 10:55:27;;;;;;;4.03;2.30;;;13.70;99.90;;;;;;4974454;28;20573;-79
2024/03/13 10:57:53;;;;;;;2.50;1.87;;;13.60;99.90;;;;;;4985619;28;20164;-78
2024/03/13 11:00:22;;;;;;;4.10;2.10;;;13.70;99.90;;;;;;4991230;28;20683;-78
2024/03/13 11:02:51;;;;;;;2.90;2.17;;;13.70;99.90;;;;;;4989664;28;20188;-78
2024/03/13 11:05:17;;;;;;;2.57;1.90;;;13.70;99.90;;;;;;4988847;28;20471;-77
2024/03/13 11:07:43;;;;;;;2.60;2.10;;;13.70;99.90;;;;;;4989894;28;20490;-79
2024/03/13 11:10:24;;;;;;;4.13;2.73;;;13.70;99.90;;;;;;4988061;28;20422;-77
2024/03/13 11:12:52;;;;;;;4.33;1.80;;;13.70;99.90;;;;;;4990754;28;20828;-80
2024/03/13 11:15:28;;;;;;;3.67;2.53;;;13.70;99.90;;;;;;4978717;28;20411;-79
2024/03/13 11:17:56;;;;;;;3.03;1.93;;;13.70;99.90;;;;;;4995538;28;20415;-77
2024/03/13 11:20:26;;;;;;;3.40;1.90;;;13.80;99.90;;;;;;4994048;28;20948;-78
2024/03/13 11:23:07;;;;;;;2.37;1.63;;;13.90;99.90;;;;;;4978479;28;20427;-80
2024/03/13 11:25:39;;;;;;;3.80;1.90;;;14.00;99.90;;;;;;4984514;28;20514;-78
2024/03/13 11:28:09;;;;;;;2.70;1.90;;;14.10;99.90;;;;;;4978962;28;20396;-78
2024/03/13 11:30:35;;;;;;;3.33;2.30;;;14.30;99.90;;;;;;4977911;28;20423;-80
2024/03/13 11:33:02;;;;;;;3.47;2.33;;;14.50;99.90;;;;;;4994528;28;20404;-81
2024/03/13 11:35:28;;;;;;;2.80;2.30;;;14.60;99.90;;;;;;4960584;28;20451;-78
2024/03/13 11:37:57;;;;;;;3.80;2.40;;;14.60;99.90;;;;;;4992600;28;20494;-79
2024/03/13 11:40:25;;;;;;;2.30;2.10;;;14.70;99.90;;;;;;4961088;28;20267;-77
2024/03/13 11:42:51;;;;;;;4.03;3.33;;;14.70;99.90;;;;;;4945492;28;20437;-77
2024/03/13 11:45:22;;;;;;;3.80;2.90;;;14.60;99.90;;;;;;4993519;28;20450;-76
2024/03/13 11:47:59;;;;;;;3.60;2.87;;;14.40;99.90;;;;;;4993739;28;20440;-79
2024/03/13 11:50:26;;;;;;;4.30;2.80;;;14.30;99.90;;;;;;4993811;28;20432;-79
2024/03/13 11:52:54;;;;;;;7.60;3.17;;;14.10;99.90;;;;;;4991709;28;20851;-77
2024/03/13 11:55:27;;;;;;;4.10;3.37;;;14.00;99.90;;;;;;4987646;28;20427;-80
2024/03/13 11:58:18;;;;;;;6.33;2.90;;;13.90;99.90;;;;;;4976454;28;20427;-80
2024/03/13 12:00:45;;;;;;;6.30;5.37;;;13.90;99.90;;;;;;4977229;28;20458;-78
2024/03/13 12:03:14;;;;;;;5.00;3.30;;;13.90;99.90;;;;;;4978478;28;20412;-79
2024/03/13 12:05:40;;;;;;;6.80;5.10;;;14.00;99.90;;;;;;4991691;28;20506;-79
2024/03/13 12:08:12;;;;;;;11.00;7.73;;;14.10;99.90;;;;;;4991838;28;20610;-78
2024/03/13 12:10:41;;;;;;;7.00;3.47;;;14.10;99.90;;;;;;4976001;28;20455;-78
2024/03/13 12:13:17;;;;;;;5.70;3.47;;;14.00;99.90;;;;;;4991601;28;20421;-79
2024/03/13 12:15:46;;;;;;;4.63;3.57;;;13.90;99.90;;;;;;4977170;28;20443;-78
2024/03/13 12:18:12;;;;;;;4.97;3.30;;;13.80;99.90;;;;;;4979648;28;20420;-79
2024/03/13 12:20:45;;;;;;;5.27;3.33;;;13.70;99.90;;;;;;4975242;29;20431;-79
2024/03/13 12:23:15;;;;;;;6.43;4.37;;;13.60;99.90;;;;;;4979015;28;20433;-77
2024/03/13 12:25:42;;;;;;;5.00;3.50;;;13.60;99.90;;;;;;4994937;28;20548;-78
2024/03/13 12:28:15;;;;;;;4.30;3.33;;;13.70;99.90;;;;;;4976149;28;20420;-77
2024/03/13 12:30:48;;;;;;;4.67;2.67;;;13.70;99.90;;;;;;4992156;28;20431;-79
2024/03/13 12:33:15;;;;;;;6.63;4.00;;;13.80;99.90;;;;;;4993461;28;20539;-80
2024/03/13 12:35:43;;;;;;;6.70;3.23;;;13.90;99.90;;;;;;4957681;28;20693;-78
2024/03/13 12:38:09;;;;;;;4.30;2.77;;;13.90;99.90;;;;;;4959706;29;20425;-79
2024/03/13 12:40:35;;;;;;;4.83;3.50;;;13.90;99.90;;;;;;4994967;28;20432;-79
2024/03/13 12:43:07;;;;;;;5.43;3.80;;;13.90;99.90;;;;;;4977684;28;20436;-78
2024/03/13 12:45:33;;;;;;;3.93;2.87;;;13.90;99.90;;;;;;4976964;28;20575;-77
2024/03/13 12:47:59;;;;;;;4.50;2.97;;;13.90;99.90;;;;;;4993037;28;20417;-77
2024/03/13 12:50:24;;;;;;;5.07;3.00;;;13.90;99.90;;;;;;4976060;28;20420;-78
2024/03/13 12:52:54;;;;;;;3.20;2.57;;;13.90;99.90;;;;;;4993208;28;20475;-79
2024/03/13 12:55:20;;;;;;;4.50;3.40;;;13.90;99.90;;;;;;4958758;29;20197;-79
2024/03/13 12:57:52;;;;;;;3.53;3.23;;;13.90;99.90;;;;;;4991635;28;20516;-79
2024/03/13 13:00:19;;;;;;;5.70;3.43;;;14.00;99.90;;;;;;4962342;28;20211;-78
2024/03/13 13:02:53;;;;;;;4.90;2.43;;;14.00;99.90;;;;;;4960347;28;20867;-78
2024/03/13 13:05:19;;;;;;;4.37;3.33;;;14.10;99.90;;;;;;4990145;28;20459;-78